Time;durP1;ratioP1;P1;durP2;ratioP2;P2;SDS_P1;SDS_P2;PMS_P1;PMS_P2;Temp;Humidity;BMP_temperature;BMP_pressure;BME280_temperature;BME280_humidity;BME280_pressure;Samples;Min_cycle;Max_cycle;Signal;HPM_P1;HPM_P2
2022/08/08 00:00:22;;;;;;;5.82;1.75;;;;;;;17.18;100.00;99341.78;5015960;28;20852;-94
2022/08/08 00:02:58;;;;;;;7.95;2.00;;;;;;;17.02;100.00;99342.19;5027580;28;20047;-93
2022/08/08 00:05:42;;;;;;;7.97;1.90;;;;;;;16.92;100.00;99340.69;5013541;28;20670;-94
2022/08/08 00:08:16;;;;;;;5.57;1.90;;;;;;;17.00;100.00;99337.88;5032480;28;20117;-93
2022/08/08 00:11:12;;;;;;;6.70;1.88;;;;;;;17.19;100.00;99343.53;5023126;28;20030;-94
2022/08/08 00:13:40;;;;;;;6.15;1.90;;;;;;;16.89;100.00;99341.63;5017335;28;20075;-94
2022/08/08 00:16:15;;;;;;;11.13;2.20;;;;;;;17.11;100.00;99335.81;5016854;28;20037;-93
2022/08/08 00:19:01;;;;;;;7.90;1.80;;;;;;;16.96;100.00;99344.97;5036757;28;20044;-94
2022/08/08 00:21:36;;;;;;;6.80;1.90;;;;;;;17.05;100.00;99341.25;5096959;28;20048;-94
2022/08/08 00:24:10;;;;;;;7.40;1.88;;;;;;;17.02;100.00;99347.47;5106026;28;20024;-93
2022/08/08 00:26:41;;;;;;;7.75;2.28;;;;;;;16.96;100.00;99350.25;5111711;28;20024;-93
2022/08/08 00:29:37;;;;;;;6.45;1.90;;;;;;;17.31;100.00;99348.44;5099386;28;20035;-94
2022/08/08 00:32:09;;;;;;;6.70;1.80;;;;;;;16.81;100.00;99347.97;5110289;28;20386;-94
2022/08/08 00:35:13;;;;;;;6.78;1.98;;;;;;;16.68;100.00;99350.03;5101068;28;20118;-93
2022/08/08 00:38:07;;;;;;;6.93;1.88;;;;;;;16.76;100.00;99347.19;5103384;28;20506;-93
2022/08/08 00:40:47;;;;;;;6.88;2.08;;;;;;;16.56;100.00;99345.94;5109702;28;20115;-95
2022/08/08 00:43:22;;;;;;;5.65;1.70;;;;;;;16.83;100.00;99347.03;5108119;28;20023;-95
2022/08/08 00:45:53;;;;;;;8.63;2.30;;;;;;;16.97;100.00;99340.59;5109934;28;20051;-92
2022/08/08 00:48:53;;;;;;;6.53;1.85;;;;;;;16.88;100.00;99346.91;5101254;28;20044;-92
2022/08/08 00:52:03;;;;;;;7.22;2.10;;;;;;;16.45;100.00;99358.47;5093817;28;20032;-92
2022/08/08 00:54:43;;;;;;;6.28;1.77;;;;;;;16.53;100.00;99346.88;5102549;28;20040;-92
2022/08/08 00:57:50;;;;;;;7.28;1.50;;;;;;;16.56;100.00;99345.94;5112626;28;20027;-94
2022/08/08 01:00:24;;;;;;;7.43;1.77;;;;;;;16.40;100.00;99350.69;5108056;28;20073;-92
2022/08/08 01:03:23;;;;;;;5.93;1.80;;;;;;;16.37;100.00;99349.00;5103028;28;20035;-94
2022/08/08 01:06:10;;;;;;;6.82;1.63;;;;;;;16.17;100.00;99357.38;5097831;28;20050;-94
2022/08/08 01:09:06;;;;;;;7.30;1.95;;;;;;;16.36;100.00;99363.06;5107678;28;20032;-94
2022/08/08 01:11:54;;;;;;;5.68;1.75;;;;;;;16.21;100.00;99363.41;5101884;28;20028;-95
2022/08/08 01:14:47;;;;;;;6.40;1.60;;;;;;;16.14;100.00;99359.19;5105380;28;20120;-92
2022/08/08 01:17:18;;;;;;;5.70;1.65;;;;;;;15.98;100.00;99362.16;5100998;28;20100;-93
2022/08/08 01:20:10;;;;;;;6.28;1.77;;;;;;;15.99;100.00;99366.53;5098042;28;20024;-92
2022/08/08 01:23:10;;;;;;;6.78;1.90;;;;;;;16.00;100.00;99362.97;5097184;28;20054;-93
2022/08/08 01:26:26;;;;;;;7.68;1.90;;;;;;;16.34;100.00;99366.66;5097652;28;20016;-92
2022/08/08 01:29:07;;;;;;;6.75;1.90;;;;;;;16.21;100.00;99369.56;5011420;28;20087;-92
2022/08/08 01:32:20;;;;;;;7.88;2.13;;;;;;;16.37;100.00;99372.69;5015672;28;20079;-93
2022/08/08 01:35:07;;;;;;;7.03;1.92;;;;;;;16.02;100.00;99371.72;5017458;28;20041;-95
2022/08/08 01:37:40;;;;;;;8.23;1.98;;;;;;;16.03;100.00;99373.47;5005314;28;20033;-96
2022/08/08 01:40:44;;;;;;;7.68;2.05;;;;;;;16.45;100.00;99377.78;5032974;28;20038;-92
2022/08/08 01:43:31;;;;;;;6.13;1.83;;;;;;;16.37;100.00;99375.31;5027707;28;20089;-93
2022/08/08 01:46:26;;;;;;;7.05;2.10;;;;;;;16.37;100.00;99364.78;5001095;28;20152;-92
2022/08/08 01:49:08;;;;;;;7.40;2.10;;;;;;;16.01;100.00;99377.00;5024122;28;20057;-95
2022/08/08 01:51:42;;;;;;;8.75;2.08;;;;;;;16.57;100.00;99373.16;5021518;28;20117;-94
2022/08/08 01:54:52;;;;;;;7.45;2.00;;;;;;;16.59;100.00;99377.47;5025080;28;20038;-92
2022/08/08 01:57:43;;;;;;;7.43;2.00;;;;;;;16.44;100.00;99370.78;5018210;28;20041;-94
2022/08/08 02:00:26;;;;;;;8.65;2.20;;;;;;;16.31;100.00;99378.13;5079136;28;20070;-94
2022/08/08 02:03:29;;;;;;;8.25;2.20;;;;;;;16.33;100.00;99375.44;5100461;28;20048;-92
2022/08/08 02:05:54;;;;;;;6.40;1.97;;;;;;;16.33;100.00;99371.03;5108418;28;20034;-93
2022/08/08 02:08:38;;;;;;;7.95;1.92;;;;;;;16.37;100.00;99362.16;5102778;28;20020;-94
2022/08/08 02:11:09;;;;;;;7.43;2.15;;;;;;;16.62;100.00;99369.50;5103497;28;20043;-94
2022/08/08 02:13:48;;;;;;;7.57;2.03;;;;;;;16.68;100.00;99365.84;5099538;28;20032;-95
2022/08/08 02:16:36;;;;;;;5.97;2.03;;;;;;;16.61;100.00;99364.28;5095665;28;20032;-91
2022/08/08 02:19:25;;;;;;;6.45;2.13;;;;;;;16.56;100.00;99361.72;5111801;28;20043;-93
2022/08/08 02:22:32;;;;;;;7.90;2.35;;;;;;;16.67;100.00;99365.00;5094897;28;20115;-94
2022/08/08 02:24:58;;;;;;;8.38;2.22;;;;;;;16.78;100.00;99363.84;5107277;28;20043;-95
2022/08/08 02:27:59;;;;;;;9.68;2.22;;;;;;;16.82;100.00;99368.13;5094946;28;20112;-92
2022/08/08 02:30:40;;;;;;;6.50;2.05;;;;;;;16.59;100.00;99366.06;5095094;28;20043;-92
2022/08/08 02:33:27;;;;;;;8.90;2.22;;;;;;;16.47;100.00;99364.59;5094707;28;20114;-92
2022/08/08 02:36:13;;;;;;;7.07;2.10;;;;;;;16.49;100.00;99366.28;5105582;28;20036;-92
2022/08/08 02:39:18;;;;;;;7.72;2.30;;;;;;;16.66;100.00;99362.38;5102086;28;20039;-92
2022/08/08 02:42:07;;;;;;;7.85;2.20;;;;;;;16.60;100.00;99368.66;5095228;28;20036;-94
2022/08/08 02:44:42;;;;;;;8.20;2.10;;;;;;;16.86;100.00;99368.00;5109317;28;20035;-93
2022/08/08 02:47:35;;;;;;;7.47;2.10;;;;;;;16.81;100.00;99366.41;5103333;28;20038;-93
2022/08/08 02:50:19;;;;;;;6.20;2.03;;;;;;;16.73;100.00;99356.06;5101110;28;20080;-92
2022/08/08 02:53:01;;;;;;;8.93;2.10;;;;;;;16.83;100.00;99362.84;5110509;28;20032;-93
2022/08/08 02:55:50;;;;;;;8.23;1.88;;;;;;;16.82;100.00;99368.13;5103518;28;20071;-93
2022/08/08 02:58:53;;;;;;;6.50;1.85;;;;;;;16.81;100.00;99369.03;5097016;28;20032;-93
2022/08/08 03:01:43;;;;;;;8.57;2.10;;;;;;;16.89;100.00;99375.00;5097063;28;20046;-94
2022/08/08 03:04:29;;;;;;;6.93;2.05;;;;;;;17.11;100.00;99370.06;5105186;28;20043;-92
2022/08/08 03:07:01;;;;;;;6.90;1.88;;;;;;;17.01;100.00;99371.22;5113881;28;20039;-93
2022/08/08 03:09:48;;;;;;;6.60;1.98;;;;;;;17.18;100.00;99368.13;5118636;28;20086;-93
2022/08/08 03:12:33;;;;;;;6.13;1.88;;;;;;;17.09;100.00;99356.09;5100360;28;20031;-94
2022/08/08 03:15:23;;;;;;;7.10;2.05;;;;;;;16.91;100.00;99357.41;5096136;28;20864;-93
2022/08/08 03:17:52;;;;;;;6.72;1.90;;;;;;;16.93;100.00;99357.38;5110348;28;20136;-93
2022/08/08 03:20:17;;;;;;;8.95;2.45;;;;;;;17.16;100.00;99362.03;5097977;28;20036;-93
2022/08/08 03:22:48;;;;;;;8.07;1.80;;;;;;;17.11;100.00;99351.63;5105433;28;20390;-93
2022/08/08 03:25:15;;;;;;;8.10;2.13;;;;;;;17.21;100.00;99357.50;5107909;28;20019;-94
2022/08/08 03:27:52;;;;;;;6.82;2.13;;;;;;;17.20;100.00;99363.69;5112779;28;20032;-94
2022/08/08 03:30:19;;;;;;;9.57;2.28;;;;;;;17.43;100.00;99359.59;5105683;28;20110;-93
2022/08/08 03:35:40;;;;;;;6.40;1.85;;;;;;;17.07;100.00;99368.41;5112557;28;20116;-93
2022/08/08 03:38:07;;;;;;;8.02;1.80;;;;;;;16.98;100.00;99369.53;5095579;28;20028;-93
2022/08/08 03:40:35;;;;;;;7.28;1.98;;;;;;;17.03;100.00;99367.63;5108118;28;20027;-93
2022/08/08 03:43:01;;;;;;;6.35;1.70;;;;;;;16.85;100.00;99366.31;5113773;28;20079;-93
2022/08/08 03:45:29;;;;;;;5.72;1.67;;;;;;;16.85;100.00;99370.69;5111436;28;20093;-93
2022/08/08 03:47:57;;;;;;;6.97;1.83;;;;;;;16.78;100.00;99369.13;5107316;28;20043;-93
2022/08/08 03:50:24;;;;;;;6.93;2.00;;;;;;;16.82;100.00;99373.41;5115337;28;20043;-93
2022/08/08 03:52:51;;;;;;;8.20;2.05;;;;;;;16.77;100.00;99372.66;5103806;28;20059;-92
2022/08/08 03:55:18;;;;;;;6.32;1.83;;;;;;;16.75;100.00;99369.19;5101904;28;20070;-92
2022/08/08 03:57:52;;;;;;;7.22;1.83;;;;;;;16.51;100.00;99384.69;5102411;28;20369;-92
2022/08/08 04:00:21;;;;;;;7.05;2.00;;;;;;;16.45;100.00;99383.06;5099264;28;20476;-92
2022/08/08 04:02:58;;;;;;;7.43;2.05;;;;;;;16.60;100.00;99388.88;5108633;28;20556;-94
2022/08/08 04:05:26;;;;;;;8.38;1.80;;;;;;;16.18;100.00;99377.50;5105835;28;20028;-93
2022/08/08 04:07:51;;;;;;;8.60;2.15;;;;;;;16.31;100.00;99377.22;5097594;28;20139;-92
2022/08/08 04:10:17;;;;;;;6.80;1.67;;;;;;;16.32;100.00;99377.19;5102395;28;20087;-93
2022/08/08 04:12:42;;;;;;;6.07;1.90;;;;;;;16.41;100.00;99388.41;5109618;28;20035;-92
2022/08/08 04:15:14;;;;;;;7.10;1.75;;;;;;;16.17;100.00;99385.44;5103302;28;20020;-93
2022/08/08 04:17:40;;;;;;;6.03;1.75;;;;;;;16.24;100.00;99383.53;5094992;28;20028;-92
2022/08/08 04:20:07;;;;;;;5.80;1.58;;;;;;;16.10;100.00;99386.47;5094938;28;20081;-93
2022/08/08 04:22:33;;;;;;;6.00;1.67;;;;;;;15.99;100.00;99384.94;5101479;28;20028;-92
2022/08/08 04:24:59;;;;;;;6.85;2.00;;;;;;;16.00;100.00;99388.44;5105083;28;20034;-94
2022/08/08 04:27:28;;;;;;;5.57;1.70;;;;;;;16.12;100.00;99376.78;5105939;28;20043;-92
2022/08/08 04:29:53;;;;;;;7.22;1.90;;;;;;;16.13;100.00;99382.00;5095970;28;20154;-91
2022/08/08 04:32:19;;;;;;;6.85;1.73;;;;;;;15.89;100.00;99388.66;5102981;28;20484;-93
2022/08/08 04:34:45;;;;;;;7.03;1.85;;;;;;;15.98;100.00;99395.50;5110376;28;20038;-93
2022/08/08 04:37:11;;;;;;;6.28;1.75;;;;;;;16.09;100.00;99392.63;5111002;28;20024;-93
2022/08/08 04:39:38;;;;;;;6.00;2.10;;;;;;;16.13;100.00;99396.91;5108903;28;20706;-95
2022/08/08 04:42:04;;;;;;;6.72;1.80;;;;;;;16.08;100.00;99394.41;5108551;28;20031;-93
2022/08/08 04:44:29;;;;;;;8.40;2.03;;;;;;;15.97;100.00;99394.63;5101922;28;20454;-93
2022/08/08 04:46:55;;;;;;;5.45;1.75;;;;;;;16.25;100.00;99399.28;5107660;28;20042;-95
2022/08/08 04:49:21;;;;;;;6.88;2.00;;;;;;;16.18;100.00;99401.19;5108348;28;20020;-92
2022/08/08 04:51:46;;;;;;;6.90;1.60;;;;;;;16.23;100.00;99401.09;5102049;28;20031;-93
2022/08/08 04:54:12;;;;;;;7.88;2.00;;;;;;;16.15;100.00;99401.25;5094166;28;20040;-92
2022/08/08 04:56:38;;;;;;;7.18;2.10;;;;;;;16.10;100.00;99399.63;5108776;28;20510;-93
2022/08/08 04:59:03;;;;;;;6.70;2.00;;;;;;;16.40;100.00;99402.50;5095299;28;20023;-93
2022/08/08 05:01:29;;;;;;;7.43;2.03;;;;;;;16.22;100.00;99399.34;5105129;28;20486;-93
2022/08/08 05:03:55;;;;;;;7.50;2.00;;;;;;;16.21;100.00;99403.78;5114211;28;20016;-94
2022/08/08 05:06:20;;;;;;;6.07;1.70;;;;;;;16.27;100.00;99405.41;5112856;28;20057;-95
2022/08/08 05:08:46;;;;;;;7.60;2.00;;;;;;;16.18;100.00;99402.97;5113328;28;20049;-94
2022/08/08 05:11:15;;;;;;;6.93;1.60;;;;;;;16.02;100.00;99407.69;5111852;28;20126;-94
2022/08/08 05:13:42;;;;;;;5.97;2.05;;;;;;;15.98;100.00;99406.88;5104389;28;20039;-92
2022/08/08 05:16:08;;;;;;;5.53;1.70;;;;;;;16.14;100.00;99406.56;5105874;28;20064;-93
2022/08/08 05:18:35;;;;;;;5.90;1.65;;;;;;;16.13;100.00;99415.34;5099541;28;20055;-94
2022/08/08 05:21:04;;;;;;;5.60;1.80;;;;;;;16.00;100.00;99415.59;5101851;28;20031;-93
2022/08/08 05:23:30;;;;;;;6.05;1.63;;;;;;;16.11;100.00;99411.88;5106766;28;20046;-92
2022/08/08 05:25:57;;;;;;;8.32;2.15;;;;;;;16.16;100.00;99413.53;5106980;28;20032;-94
2022/08/08 05:28:22;;;;;;;7.45;1.98;;;;;;;16.34;100.00;99411.41;5103010;28;20039;-94
2022/08/08 05:30:48;;;;;;;6.30;1.60;;;;;;;16.41;100.00;99413.00;5103185;28;20640;-94
2022/08/08 05:33:14;;;;;;;7.22;2.08;;;;;;;16.38;100.00;99416.56;5100022;28;20028;-92
2022/08/08 05:35:41;;;;;;;7.60;1.80;;;;;;;16.40;100.00;99423.56;5106177;28;20024;-94
2022/08/08 05:38:12;;;;;;;7.07;1.90;;;;;;;16.28;100.00;99420.28;5098465;28;20576;-94
2022/08/08 05:40:41;;;;;;;6.18;1.90;;;;;;;16.32;100.00;99424.56;5099695;28;20532;-95
2022/08/08 05:43:09;;;;;;;6.90;2.00;;;;;;;16.54;100.00;99430.22;5097532;28;20027;-94
2022/08/08 05:45:36;;;;;;;8.95;2.10;;;;;;;16.67;100.00;99428.19;5104473;28;20043;-92
2022/08/08 05:48:03;;;;;;;7.68;2.10;;;;;;;16.66;100.00;99428.22;5096675;28;20046;-93
2022/08/08 05:50:30;;;;;;;8.27;2.20;;;;;;;16.75;100.00;99425.38;5088419;28;20024;-92
2022/08/08 05:52:56;;;;;;;6.53;1.98;;;;;;;16.82;100.00;99426.94;5089919;28;20031;-94
2022/08/08 05:55:23;;;;;;;7.32;2.20;;;;;;;16.95;100.00;99432.84;5099273;28;20131;-92
2022/08/08 05:57:51;;;;;;;7.45;2.20;;;;;;;16.99;100.00;99433.63;5102009;28;20031;-94
2022/08/08 06:00:17;;;;;;;6.03;1.95;;;;;;;17.05;100.00;99434.34;5098428;28;20073;-92
2022/08/08 06:06:06;;;;;;;7.25;1.90;;;;;;;17.23;100.00;99440.06;5107278;28;20104;-95
2022/08/08 06:08:40;;;;;;;9.45;2.22;;;;;;;17.37;100.00;99437.94;5100210;28;20056;-93
2022/08/08 06:11:06;;;;;;;6.45;1.98;;;;;;;17.48;100.00;99440.28;5098385;28;20028;-92
2022/08/08 06:13:32;;;;;;;7.75;1.85;;;;;;;17.44;100.00;99449.19;5102591;28;20640;-93
2022/08/08 06:15:58;;;;;;;6.60;1.92;;;;;;;17.90;100.00;99447.09;5092316;28;20031;-93
2022/08/08 06:18:25;;;;;;;9.15;1.98;;;;;;;17.83;100.00;99450.78;5102914;28;20039;-95
2022/08/08 06:20:56;;;;;;;7.93;1.80;;;;;;;17.59;100.00;99455.81;5090545;28;20462;-95
2022/08/08 06:23:22;;;;;;;6.25;1.80;;;;;;;17.79;100.00;99455.28;5096807;28;20093;-96
2022/08/08 06:26:05;;;;;;;9.10;2.10;;;;;;;18.01;100.00;99460.88;5091205;28;20051;-93
2022/08/08 06:28:38;;;;;;;6.32;2.00;;;;;;;18.19;100.00;99455.94;5089692;28;20123;-92
2022/08/08 06:31:10;;;;;;;6.55;1.80;;;;;;;18.38;100.00;99453.66;5097657;28;20111;-92
2022/08/08 06:33:48;;;;;;;8.25;1.67;;;;;;;18.07;100.00;99458.03;5091813;28;20059;-94
2022/08/08 06:36:24;;;;;;;6.93;1.98;;;;;;;17.95;100.00;99462.81;5098361;28;20036;-93
2022/08/08 06:38:54;;;;;;;6.85;2.05;;;;;;;18.00;100.00;99466.19;5102367;28;20828;-94
2022/08/08 06:41:23;;;;;;;5.72;1.90;;;;;;;17.70;100.00;99461.69;5102252;28;20499;-93
2022/08/08 06:43:55;;;;;;;5.43;1.80;;;;;;;17.46;100.00;99460.53;5102160;28;20490;-93
2022/08/08 06:46:20;;;;;;;6.95;1.55;;;;;;;17.34;100.00;99468.78;5097734;28;20059;-95
2022/08/08 06:48:47;;;;;;;6.28;1.75;;;;;;;17.72;100.00;99462.50;5090331;28;20063;-93
2022/08/08 06:51:14;;;;;;;9.38;2.00;;;;;;;18.08;100.00;99470.34;5091547;28;20496;-94
2022/08/08 06:53:40;;;;;;;6.50;1.67;;;;;;;18.16;100.00;99470.13;5090104;28;20059;-94
2022/08/08 06:56:10;;;;;;;8.15;1.70;;;;;;;18.32;100.00;99474.97;5072023;28;20028;-96
2022/08/08 06:58:36;;;;;;;8.07;1.73;;;;;;;18.11;100.00;99479.06;5085049;28;20396;-93
2022/08/08 07:01:14;;;;;;;7.78;2.00;;;;;;;18.15;100.00;99480.72;5123227;27;20054;-94
2022/08/08 07:03:59;;;;;;;8.57;2.00;;;;;;;17.93;100.00;99483.13;5087272;28;20043;-94
2022/08/08 07:06:44;;;;;;;8.90;2.13;;;;;;;18.28;100.00;99484.75;5084185;28;20023;-96
2022/08/08 07:09:24;;;;;;;8.50;2.20;;;;;;;18.22;100.00;99485.78;5091743;28;20060;-95
2022/08/08 07:11:56;;;;;;;6.82;2.10;;;;;;;18.40;100.00;99479.09;5087311;28;20027;-96
2022/08/08 07:14:31;;;;;;;7.15;2.00;;;;;;;18.91;100.00;99482.00;5086041;28;20024;-95
2022/08/08 07:17:03;;;;;;;6.97;1.90;;;;;;;18.72;100.00;99479.91;5091541;28;20038;-95
2022/08/08 07:20:14;;;;;;;9.60;2.15;;;;;;;19.00;100.00;99488.75;5103958;28;20032;-92
2022/08/08 07:23:00;;;;;;;8.35;2.15;;;;;;;19.31;100.00;99487.78;5066744;28;20368;-91
2022/08/08 07:25:26;;;;;;;8.02;1.73;;;;;;;18.79;100.00;99487.63;5079890;28;20032;-95
2022/08/08 07:28:14;;;;;;;7.72;1.92;;;;;;;19.08;100.00;99484.97;5087714;28;20027;-93
2022/08/08 07:30:40;;;;;;;8.73;1.83;;;;;;;18.90;100.00;99485.53;5090542;28;20031;-94
2022/08/08 07:33:10;;;;;;;8.80;1.90;;;;;;;18.85;100.00;99498.03;5091835;28;20031;-95
2022/08/08 07:35:37;;;;;;;6.82;1.90;;;;;;;19.13;100.00;99494.53;5087588;28;20085;-92
2022/08/08 07:38:03;;;;;;;7.80;1.77;;;;;;;19.32;100.00;99495.66;5080243;28;20056;-93
2022/08/08 07:40:30;;;;;;;7.05;1.83;;;;;;;19.47;100.00;99491.66;5073874;28;20063;-93
2022/08/08 07:42:55;;;;;;;6.80;1.80;;;;;;;18.98;100.00;99494.09;5077070;28;20111;-95
2022/08/08 07:45:22;;;;;;;5.25;1.50;;;;;;;19.29;100.00;99498.41;5081168;28;20444;-92
2022/08/08 07:47:48;;;;;;;8.32;1.88;;;;;;;19.38;100.00;99500.75;5100600;28;20034;-92
2022/08/08 07:50:14;;;;;;;6.07;1.52;;;;;;;19.43;100.00;99505.91;5107723;28;20106;-92
2022/08/08 07:52:45;;;;;;;8.85;1.80;;;;;;;19.56;100.00;99511.63;5085621;28;20110;-93
2022/08/08 07:55:30;;;;;;;9.05;2.20;;;;;;;20.11;100.00;99509.72;5097902;28;20044;-92
2022/08/08 07:58:08;;;;;;;6.90;1.50;;;;;;;19.87;100.00;99513.25;5104297;28;20039;-92
2022/08/08 08:00:48;;;;;;;8.45;1.85;;;;;;;20.16;100.00;99506.91;5097895;28;20024;-93
2022/08/08 08:03:21;;;;;;;6.53;2.00;;;;;;;19.36;100.00;99521.09;5093565;28;20034;-92
2022/08/08 08:05:50;;;;;;;5.50;1.60;;;;;;;19.97;100.00;99517.28;5085812;28;20106;-92
2022/08/08 08:08:18;;;;;;;8.70;2.03;;;;;;;19.75;100.00;99515.38;5082618;28;20505;-92
2022/08/08 08:10:56;;;;;;;6.13;2.10;;;;;;;19.94;100.00;99512.09;5080711;28;20039;-92
2022/08/08 08:13:36;;;;;;;6.40;1.83;;;;;;;19.85;100.00;99525.69;5080759;28;20028;-93
2022/08/08 08:16:05;;;;;;;6.22;1.60;;;;;;;19.57;100.00;99522.16;5087497;28;20050;-91
2022/08/08 08:18:42;;;;;;;7.90;1.98;;;;;;;19.82;100.00;99515.19;5078362;28;20035;-93
2022/08/08 08:21:09;;;;;;;7.78;1.58;;;;;;;20.34;100.00;99525.72;5074843;28;20062;-93
2022/08/08 08:23:36;;;;;;;6.28;1.73;;;;;;;20.67;100.00;99522.69;5083502;28;20035;-93
2022/08/08 08:26:02;;;;;;;9.05;1.63;;;;;;;20.54;100.00;99531.13;5075576;28;20057;-93
2022/08/08 08:28:29;;;;;;;6.28;1.60;;;;;;;20.60;100.00;99520.28;5096553;28;20044;-93
2022/08/08 08:30:55;;;;;;;6.72;1.75;;;;;;;20.75;100.00;99520.63;5080783;28;20069;-94
2022/08/08 08:33:20;;;;;;;4.68;1.27;;;;;;;21.24;100.00;99528.44;5083453;28;20491;-95
2022/08/08 08:35:47;;;;;;;6.72;1.50;;;;;;;21.42;100.00;99525.03;5091359;28;20031;-93
2022/08/08 08:38:13;;;;;;;5.00;1.30;;;;;;;21.14;100.00;99523.53;5083376;28;20114;-95
2022/08/08 08:40:39;;;;;;;4.15;1.15;;;;;;;20.54;100.00;99522.28;5077495;28;20111;-92
2022/08/08 08:43:06;;;;;;;6.45;1.90;;;;;;;21.34;100.00;99518.34;5080123;28;20095;-93
2022/08/08 08:45:36;;;;;;;7.28;1.60;;;;;;;21.42;100.00;99522.38;5102988;28;20534;-92
2022/08/08 08:48:03;;;;;;;5.85;1.70;;;;;;;21.51;100.00;99522.94;5087542;28;20028;-92
2022/08/08 08:50:30;;;;;;;6.07;1.52;;;;;;;21.35;100.00;99523.56;5108361;28;20039;-92
2022/08/08 08:52:58;;;;;;;6.95;1.42;;;;;;;21.49;100.00;99523.00;5100880;28;20533;-92
2022/08/08 08:55:26;;;;;;;6.32;1.30;;;;;;;21.21;100.00;99517.94;5099737;28;20063;-92
2022/08/08 08:57:54;;;;;;;6.65;1.40;;;;;;;21.71;100.00;99512.38;5096558;28;20028;-92
2022/08/08 09:00:20;;;;;;;7.43;1.70;;;;;;;22.37;100.00;99523.72;5096301;28;20039;-92
2022/08/08 09:02:46;;;;;;;5.68;1.40;;;;;;;22.50;100.00;99516.88;5097726;28;20048;-91
2022/08/08 09:05:13;;;;;;;4.63;1.40;;;;;;;22.12;100.00;99515.00;5099404;28;20027;-91
2022/08/08 09:07:40;;;;;;;5.40;1.33;;;;;;;21.96;100.00;99517.47;5099344;28;20054;-92
2022/08/08 09:10:08;;;;;;;6.50;1.65;;;;;;;22.60;100.00;99517.31;5093894;28;20023;-92
2022/08/08 09:12:36;;;;;;;5.55;1.45;;;;;;;22.20;100.00;99519.97;5099860;28;20032;-91
2022/08/08 09:15:01;;;;;;;7.15;1.85;;;;;;;22.74;100.00;99514.00;5099954;28;20118;-92
2022/08/08 09:17:27;;;;;;;6.38;1.60;;;;;;;22.79;100.00;99517.31;5103398;28;20114;-93
2022/08/08 09:20:00;;;;;;;6.85;1.48;;;;;;;22.11;100.00;99513.25;5095929;28;20061;-93
2022/08/08 09:22:26;;;;;;;4.63;1.38;;;;;;;22.13;100.00;99516.72;5092500;28;20036;-92
2022/08/08 09:24:53;;;;;;;6.53;1.55;;;;;;;22.01;100.00;99525.25;5095633;28;20076;-93
2022/08/08 09:27:20;;;;;;;5.18;1.40;;;;;;;21.49;100.00;99521.19;5097974;28;20030;-92
2022/08/08 09:29:50;;;;;;;6.13;1.52;;;;;;;21.34;100.00;99524.50;5096368;28;20024;-94
2022/08/08 09:32:24;;;;;;;5.65;1.35;;;;;;;20.86;100.00;99518.44;5100756;28;20036;-91
2022/08/08 09:34:53;;;;;;;7.03;1.30;;;;;;;20.87;100.00;99509.56;5099784;28;20486;-92
2022/08/08 09:37:26;;;;;;;6.22;1.38;;;;;;;21.12;100.00;99512.09;5097703;28;20032;-91
2022/08/08 09:39:58;;;;;;;5.70;1.50;;;;;;;21.22;100.00;99507.28;5105304;28;20073;-91
2022/08/08 09:42:32;;;;;;;5.45;1.35;;;;;;;21.21;100.00;99507.34;5095598;28;20043;-91
2022/08/08 09:45:09;;;;;;;4.85;1.30;;;;;;;21.11;100.00;99506.84;5097177;28;20060;-91
2022/08/08 09:47:36;;;;;;;6.72;1.33;;;;;;;21.54;100.00;99504.25;5094929;28;20031;-92
2022/08/08 09:50:09;;;;;;;6.57;1.70;;;;;;;21.04;100.00;99505.38;5098251;28;20119;-94
2022/08/08 09:52:36;;;;;;;5.68;1.40;;;;;;;20.77;100.00;99503.75;5092462;28;20036;-91
2022/08/08 09:55:01;;;;;;;8.02;1.60;;;;;;;21.08;100.00;99507.84;5093209;28;20048;-92
2022/08/08 09:57:27;;;;;;;7.35;1.65;;;;;;;21.45;100.00;99503.69;5099234;28;20035;-92
2022/08/08 09:59:57;;;;;;;7.43;1.50;;;;;;;21.93;100.00;99500.81;5092759;28;20039;-91
2022/08/08 10:02:32;;;;;;;4.80;1.30;;;;;;;21.71;100.00;99492.91;5095625;28;20027;-94
2022/08/08 10:05:26;;;;;;;6.80;1.70;;;;;;;21.13;100.00;99495.25;5088836;28;20564;-91
2022/08/08 10:07:51;;;;;;;7.07;1.50;;;;;;;21.30;100.00;99505.16;5094836;28;20488;-92
2022/08/08 10:10:26;;;;;;;7.93;1.33;;;;;;;21.14;100.00;99501.41;5096900;28;20038;-92
2022/08/08 10:12:51;;;;;;;5.95;1.70;;;;;;;21.37;100.00;99497.81;5101660;28;20024;-92
2022/08/08 10:15:18;;;;;;;6.45;1.55;;;;;;;21.02;100.00;99496.63;5094974;28;20020;-92
2022/08/08 10:17:48;;;;;;;8.40;1.67;;;;;;;21.61;100.00;99493.31;5094462;28;20162;-93
2022/08/08 10:20:15;;;;;;;7.07;1.63;;;;;;;21.13;100.00;99489.94;5096898;28;20134;-92
2022/08/08 10:22:50;;;;;;;6.90;1.55;;;;;;;21.13;100.00;99487.31;5089732;28;20660;-93
2022/08/08 10:26:04;;;;;;;5.68;1.40;;;;;;;20.99;100.00;99492.31;5097537;28;20031;-92
2022/08/08 10:28:36;;;;;;;6.22;1.58;;;;;;;21.31;100.00;99479.53;5094489;28;20479;-92
2022/08/08 10:32:30;;;;;;;5.50;1.50;;;;;;;22.03;100.00;99487.97;5098484;28;20142;-92
2022/08/08 10:33:52;;;;;;;5.35;1.50;;;;;;;23.03;100.00;99478.03;5094828;28;20040;-94
2022/08/08 10:36:23;;;;;;;5.50;1.70;;;;;;;22.50;100.00;99485.88;5090849;28;20030;-93
2022/08/08 10:38:52;;;;;;;5.22;1.50;;;;;;;23.61;100.00;99479.59;5098970;28;20044;-94
2022/08/08 10:41:22;;;;;;;7.90;1.50;;;;;;;22.56;100.00;99475.84;5102419;28;20484;-90
2022/08/08 10:43:50;;;;;;;5.75;1.55;;;;;;;22.20;100.00;99472.16;5097409;28;20077;-93
2022/08/08 10:46:26;;;;;;;6.40;1.60;;;;;;;21.92;100.00;99472.53;5095409;28;20497;-91
2022/08/08 10:49:42;;;;;;;5.18;1.40;;;;;;;21.63;100.00;99477.34;5091333;28;20039;-92
2022/08/08 10:52:08;;;;;;;4.20;1.20;;;;;;;23.53;100.00;99465.81;5102900;28;20034;-91
2022/08/08 10:54:34;;;;;;;6.03;1.70;;;;;;;23.83;100.00;99478.50;5083672;28;20052;-92
2022/08/08 10:57:01;;;;;;;5.53;1.38;;;;;;;24.29;100.00;99470.75;5075084;28;20071;-91
2022/08/08 10:59:27;;;;;;;6.50;1.50;;;;;;;25.11;100.00;99476.00;5083180;28;20123;-93
2022/08/08 11:01:53;;;;;;;5.28;1.45;;;;;;;25.99;100.00;99476.19;5078413;28;20111;-91
2022/08/08 11:04:19;;;;;;;5.20;1.48;;;;;;;23.76;100.00;99469.09;5088512;28;20032;-92
2022/08/08 11:06:45;;;;;;;6.68;1.30;;;;;;;24.10;100.00;99470.88;5103985;28;20043;-92
2022/08/08 11:09:11;;;;;;;5.78;1.52;;;;;;;24.44;100.00;99471.72;5082660;28;20024;-92
2022/08/08 11:11:43;;;;;;;7.25;1.80;;;;;;;26.11;100.00;99475.47;5076409;28;20029;-91
2022/08/08 11:14:11;;;;;;;6.75;1.63;;;;;;;25.42;100.00;99472.47;5075400;28;20558;-92
2022/08/08 11:16:43;;;;;;;5.22;1.40;;;;;;;25.46;100.00;99474.00;5072842;28;20031;-91
2022/08/08 11:19:09;;;;;;;6.05;1.33;;;;;;;25.00;100.00;99476.66;5082523;28;20063;-92
2022/08/08 11:21:40;;;;;;;6.22;1.35;;;;;;;25.19;100.00;99476.44;5088214;28;20059;-92
2022/08/08 11:24:08;;;;;;;5.50;1.40;;;;;;;23.42;100.00;99476.16;5078955;28;20031;-91
2022/08/08 11:26:37;;;;;;;6.18;1.55;;;;;;;22.92;100.00;99469.72;5085605;28;20028;-91
2022/08/08 11:29:05;;;;;;;5.18;1.23;;;;;;;23.75;100.00;99470.06;5086233;28;20047;-88
2022/08/08 11:31:36;;;;;;;5.53;1.30;;;;;;;23.68;100.00;99469.50;5080011;28;20034;-90
2022/08/08 11:34:03;;;;;;;5.63;1.33;;;;;;;23.27;100.00;99472.47;5102524;28;20040;-89
2022/08/08 11:36:31;;;;;;;6.65;1.40;;;;;;;23.49;100.00;99469.59;5070387;28;20123;-89
2022/08/08 11:38:57;;;;;;;5.78;1.33;;;;;;;23.33;100.00;99459.72;5069571;28;20101;-89
2022/08/08 11:41:24;;;;;;;4.82;1.20;;;;;;;22.77;100.00;99469.53;5077681;28;20062;-89
2022/08/08 11:43:53;;;;;;;5.45;1.20;;;;;;;24.07;100.00;99460.38;5086914;28;20118;-89
2022/08/08 11:46:23;;;;;;;5.10;1.40;;;;;;;23.78;100.00;99454.75;5076530;28;20510;-90
2022/08/08 11:48:50;;;;;;;5.28;1.40;;;;;;;23.78;100.00;99449.44;5092545;28;20039;-89
2022/08/08 11:51:19;;;;;;;4.93;1.25;;;;;;;23.75;100.00;99454.94;5075813;28;20092;-90
2022/08/08 11:53:45;;;;;;;5.28;1.30;;;;;;;23.37;100.00;99456.88;5095751;28;20028;-90
2022/08/08 11:56:22;;;;;;;5.30;1.23;;;;;;;22.91;100.00;99457.34;5086696;28;20133;-89
2022/08/08 11:58:48;;;;;;;5.53;1.20;;;;;;;23.52;100.00;99462.31;5092864;28;20028;-89
2022/08/08 12:01:14;;;;;;;4.13;1.08;;;;;;;23.47;100.00;99448.38;5093343;28;20063;-89